createdAt,value
2023-10-03T00:00:16.882Z,17.03
2023-10-03T00:01:17.766Z,16.99
2023-10-03T00:02:18.644Z,16.91
2023-10-03T00:03:19.565Z,16.90
2023-10-03T00:04:20.592Z,16.88
2023-10-03T00:05:21.504Z,16.96
2023-10-03T00:06:22.364Z,16.98
2023-10-03T00:07:23.240Z,16.98
2023-10-03T00:08:24.279Z,16.99
2023-10-03T00:09:24.666Z,17.00
2023-10-03T00:10:25.576Z,16.96
2023-10-03T00:11:26.490Z,16.88
2023-10-03T00:12:27.325Z,16.98
2023-10-03T00:13:28.249Z,17.00
2023-10-03T00:14:29.156Z,16.99
2023-10-03T00:15:30.012Z,17.02
2023-10-03T00:16:30.875Z,16.98
2023-10-03T00:17:31.837Z,16.98
2023-10-03T00:18:32.780Z,16.98
2023-10-03T00:19:33.722Z,16.99
2023-10-03T00:20:34.643Z,16.99
2023-10-03T00:21:35.529Z,16.95
2023-10-03T00:22:36.388Z,16.96
2023-10-03T00:23:37.312Z,16.96
2023-10-03T00:24:38.206Z,16.92
2023-10-03T00:25:39.116Z,16.92
2023-10-03T00:26:40.094Z,16.90
2023-10-03T00:27:40.918Z,16.91
2023-10-03T00:28:41.839Z,16.96
2023-10-03T00:29:42.793Z,16.95
2023-10-03T00:30:43.212Z,16.90
2023-10-03T00:31:44.097Z,16.92
2023-10-03T00:32:45.121Z,16.87
2023-10-03T00:33:45.586Z,16.84
2023-10-03T00:34:46.471Z,16.88
2023-10-03T00:35:47.419Z,16.88
2023-10-03T00:36:48.301Z,16.88
2023-10-03T00:37:49.174Z,16.87
2023-10-03T00:38:50.124Z,16.90
2023-10-03T00:39:50.985Z,16.90
2023-10-03T00:40:51.843Z,16.92
2023-10-03T00:41:52.747Z,16.88
2023-10-03T00:42:53.615Z,16.87
2023-10-03T00:43:54.501Z,16.84
2023-10-03T00:44:55.441Z,16.77
2023-10-03T00:45:56.315Z,16.75
2023-10-03T00:46:57.179Z,16.75
2023-10-03T00:47:58.166Z,16.75
2023-10-03T00:48:58.598Z,16.70
2023-10-03T00:49:59.496Z,16.65
2023-10-03T00:51:00.512Z,16.67
2023-10-03T00:52:00.909Z,16.66
2023-10-03T00:53:01.786Z,16.63
2023-10-03T00:54:02.695Z,16.67
2023-10-03T00:55:03.569Z,16.69
2023-10-03T00:56:04.450Z,16.67
2023-10-03T00:57:05.333Z,16.72
2023-10-03T00:58:06.192Z,16.67
2023-10-03T00:59:07.095Z,16.65
2023-10-03T01:00:07.979Z,16.65
2023-10-03T01:01:08.855Z,16.62
2023-10-03T01:02:09.726Z,16.62
2023-10-03T01:03:10.667Z,16.52
2023-10-03T01:04:11.242Z,16.47
2023-10-03T01:05:11.692Z,16.51
2023-10-03T01:06:12.616Z,16.55
2023-10-03T01:07:13.457Z,16.65
2023-10-03T01:08:14.331Z,16.67
2023-10-03T01:09:15.231Z,16.66
2023-10-03T01:10:16.103Z,16.60
2023-10-03T01:11:17.325Z,16.62
2023-10-03T01:12:17.513Z,16.55
2023-10-03T01:13:18.378Z,16.55
2023-10-03T01:14:19.272Z,16.55
2023-10-03T01:15:20.984Z,16.55
2023-10-03T01:16:21.127Z,16.54
2023-10-03T01:17:21.997Z,16.54
2023-10-03T01:18:22.942Z,16.48
2023-10-03T01:19:23.888Z,16.50
2023-10-03T01:20:24.842Z,16.51
2023-10-03T01:21:25.227Z,16.47
2023-10-03T01:22:26.116Z,16.45
2023-10-03T01:23:27.028Z,16.48
2023-10-03T01:24:28.024Z,16.48
2023-10-03T01:25:28.962Z,16.48
2023-10-03T01:26:29.897Z,16.48
2023-10-03T01:27:30.751Z,16.51
2023-10-03T01:28:31.646Z,16.50
2023-10-03T01:29:32.576Z,16.47
2023-10-03T01:30:33.453Z,16.42
2023-10-03T01:31:34.342Z,16.44
2023-10-03T01:32:35.264Z,16.42
2023-10-03T01:33:36.171Z,16.42
2023-10-03T01:34:37.080Z,16.48
2023-10-03T01:35:38.022Z,16.42
2023-10-03T01:36:38.904Z,16.42
2023-10-03T01:37:39.793Z,16.42
2023-10-03T01:38:40.709Z,16.44
2023-10-03T01:39:41.567Z,16.48
2023-10-03T01:40:42.980Z,16.41
2023-10-03T01:41:43.415Z,16.40
2023-10-03T01:42:44.268Z,16.41
2023-10-03T01:43:45.157Z,16.50
2023-10-03T01:44:46.076Z,16.51
2023-10-03T01:45:46.956Z,16.52
2023-10-03T01:46:47.862Z,16.54
2023-10-03T01:47:48.850Z,16.55
2023-10-03T01:48:49.260Z,16.54
2023-10-03T01:49:50.134Z,16.57
2023-10-03T01:50:51.037Z,16.54
2023-10-03T01:51:51.940Z,16.54
2023-10-03T01:52:52.808Z,16.54
2023-10-03T01:53:53.725Z,16.57
2023-10-03T01:54:54.577Z,16.66
2023-10-03T01:55:55.450Z,16.66
2023-10-03T01:56:56.356Z,16.67
2023-10-03T01:57:57.246Z,16.70
2023-10-03T01:58:58.108Z,16.72
2023-10-03T01:59:58.995Z,16.67
2023-10-03T02:00:59.889Z,16.63
2023-10-03T02:02:00.806Z,16.63
2023-10-03T02:03:01.878Z,16.67
2023-10-03T02:04:02.331Z,16.70
2023-10-03T02:05:03.211Z,16.70
2023-10-03T02:06:04.130Z,16.70
2023-10-03T02:07:04.972Z,16.69
2023-10-03T02:08:05.876Z,16.73
2023-10-03T02:09:06.776Z,16.73
2023-10-03T02:10:07.637Z,16.75
2023-10-03T02:11:08.544Z,16.77
2023-10-03T02:12:09.481Z,16.81
2023-10-03T02:13:10.314Z,16.84
2023-10-03T02:14:11.179Z,16.87
2023-10-03T02:15:12.103Z,16.87
2023-10-03T02:16:12.978Z,16.91
2023-10-03T02:17:13.882Z,16.85
2023-10-03T02:18:14.943Z,16.85
2023-10-03T02:19:15.401Z,16.84
2023-10-03T02:20:16.291Z,16.85
2023-10-03T02:21:17.183Z,16.90
2023-10-03T02:22:18.066Z,16.85
2023-10-03T02:23:19.034Z,16.87
2023-10-03T02:24:19.456Z,16.88
2023-10-03T02:25:20.358Z,16.90
2023-10-03T02:26:21.223Z,16.85
2023-10-03T02:27:22.147Z,16.81
2023-10-03T02:28:22.992Z,16.84
2023-10-03T02:29:23.915Z,16.91
2023-10-03T02:30:24.799Z,16.92
2023-10-03T02:31:25.829Z,16.99
2023-10-03T02:32:26.369Z,17.00
2023-10-03T02:33:26.849Z,16.99
2023-10-03T02:34:27.225Z,16.95
2023-10-03T02:35:28.213Z,16.96
2023-10-03T02:36:29.097Z,16.95
2023-10-03T02:37:29.978Z,16.82
2023-10-03T02:38:31.255Z,16.77
2023-10-03T02:39:31.745Z,16.78
2023-10-03T02:40:32.618Z,16.69
2023-10-03T02:41:33.511Z,16.67
2023-10-03T02:42:34.354Z,16.72
2023-10-03T02:43:35.257Z,16.78
2023-10-03T02:44:36.190Z,16.78
2023-10-03T02:45:37.063Z,16.78
2023-10-03T02:46:37.920Z,16.80
2023-10-03T02:47:38.868Z,16.84
2023-10-03T02:48:39.790Z,16.81
2023-10-03T02:49:40.669Z,16.81
2023-10-03T02:50:41.552Z,16.81
2023-10-03T02:51:42.394Z,16.81
2023-10-03T02:52:43.312Z,16.80
2023-10-03T02:53:44.286Z,16.78
2023-10-03T02:54:44.792Z,16.69
2023-10-03T02:55:45.629Z,16.66
2023-10-03T02:56:46.530Z,16.69
2023-10-03T02:57:47.427Z,16.70
2023-10-03T02:58:48.298Z,16.75
2023-10-03T02:59:49.246Z,16.75
2023-10-03T03:00:50.111Z,16.75
2023-10-03T03:01:51.006Z,16.73
2023-10-03T03:02:52.068Z,16.72
2023-10-03T03:03:52.594Z,16.70
2023-10-03T03:04:53.102Z,16.69
2023-10-03T03:05:54.028Z,16.72
2023-10-03T03:06:54.893Z,16.75
2023-10-03T03:07:55.397Z,16.75
2023-10-03T03:08:56.363Z,16.72
2023-10-03T03:09:56.774Z,16.70
2023-10-03T03:10:57.695Z,16.65
2023-10-03T03:11:59.878Z,16.67
2023-10-03T03:12:59.274Z,16.67
2023-10-03T03:14:00.151Z,16.69
2023-10-03T03:15:01.107Z,16.72
2023-10-03T03:16:02.239Z,16.72
2023-10-03T03:17:02.946Z,16.70
2023-10-03T03:18:03.865Z,16.69
2023-10-03T03:19:04.755Z,16.69
2023-10-03T03:20:05.637Z,16.70
2023-10-03T03:21:06.503Z,16.66
2023-10-03T03:22:07.402Z,16.60
2023-10-03T03:23:08.291Z,16.52
2023-10-03T03:24:09.159Z,16.54
2023-10-03T03:25:10.029Z,16.60
2023-10-03T03:26:10.910Z,16.66
2023-10-03T03:27:11.804Z,16.69
2023-10-03T03:28:12.734Z,16.72
2023-10-03T03:29:13.606Z,16.70
2023-10-03T03:30:14.458Z,16.66
2023-10-03T03:31:15.384Z,16.65
2023-10-03T03:32:16.254Z,16.62
2023-10-03T03:33:17.192Z,16.63
2023-10-03T03:34:18.114Z,16.67
2023-10-03T03:35:19.316Z,16.69
2023-10-03T03:36:19.690Z,16.67
2023-10-03T03:37:20.552Z,16.72
2023-10-03T03:38:21.498Z,16.77
2023-10-03T03:39:22.361Z,16.81
2023-10-03T03:40:23.284Z,16.84
2023-10-03T03:41:24.187Z,16.82
2023-10-03T03:42:25.035Z,16.88
2023-10-03T03:43:25.907Z,16.77
2023-10-03T03:44:27.365Z,16.73
2023-10-03T03:45:27.793Z,16.70
2023-10-03T03:46:28.653Z,16.75
2023-10-03T03:47:29.658Z,16.80
2023-10-03T03:48:30.161Z,16.77
2023-10-03T03:49:31.056Z,16.65
2023-10-03T03:50:35.071Z,16.66
2023-10-03T03:51:32.501Z,16.67
2023-10-03T03:52:33.354Z,16.73
2023-10-03T03:53:34.270Z,16.77
2023-10-03T03:54:35.149Z,16.77
2023-10-03T03:55:36.002Z,16.65
2023-10-03T03:56:36.974Z,16.62
2023-10-03T03:57:37.789Z,16.66
2023-10-03T03:58:38.734Z,16.67
2023-10-03T03:59:39.635Z,16.67
2023-10-03T04:00:40.510Z,16.65
2023-10-03T04:01:41.375Z,16.67
2023-10-03T04:02:42.368Z,16.72
2023-10-03T04:03:43.461Z,16.75
2023-10-03T04:04:43.993Z,16.75
2023-10-03T04:05:44.895Z,16.73
2023-10-03T04:06:45.790Z,16.73
2023-10-03T04:07:46.682Z,16.75
2023-10-03T04:09:04.167Z,16.73
2023-10-03T04:09:49.316Z,16.77
2023-10-03T04:10:49.181Z,16.81
2023-10-03T04:11:49.742Z,16.85
2023-10-03T04:12:50.633Z,16.87
2023-10-03T04:13:51.557Z,16.90
2023-10-03T04:14:52.446Z,16.92
2023-10-03T04:15:53.357Z,16.92
2023-10-03T04:16:54.257Z,16.96
2023-10-03T04:17:55.228Z,16.95
2023-10-03T04:18:55.640Z,16.92
2023-10-03T04:19:56.496Z,16.96
2023-10-03T04:20:57.426Z,16.92
2023-10-03T04:21:58.299Z,16.91
2023-10-03T04:22:59.199Z,16.91
2023-10-03T04:24:00.065Z,16.91
2023-10-03T04:25:00.912Z,16.91
2023-10-03T04:26:01.792Z,16.92
2023-10-03T04:27:02.740Z,16.98
2023-10-03T04:28:03.668Z,16.98
2023-10-03T04:29:04.702Z,16.95
2023-10-03T04:30:05.409Z,16.96
2023-10-03T04:31:06.322Z,16.92
2023-10-03T04:32:07.213Z,16.98
2023-10-03T04:33:08.212Z,17.00
2023-10-03T04:34:09.045Z,17.03
2023-10-03T04:35:09.942Z,17.09
2023-10-03T04:36:11.124Z,17.07
2023-10-03T04:37:11.621Z,17.00
2023-10-03T04:38:12.492Z,16.96
2023-10-03T04:39:13.416Z,16.95
2023-10-03T04:40:14.282Z,16.98
2023-10-03T04:41:15.148Z,16.92
2023-10-03T04:42:16.141Z,16.88
2023-10-03T04:43:16.517Z,16.85
2023-10-03T04:44:17.983Z,16.85
2023-10-03T04:45:18.123Z,16.80
2023-10-03T04:46:19.153Z,16.81
2023-10-03T04:47:19.553Z,16.75
2023-10-03T04:48:20.599Z,16.78
2023-10-03T04:49:21.008Z,16.78
2023-10-03T04:50:21.895Z,16.75
2023-10-03T04:51:22.765Z,16.75
2023-10-03T04:52:23.641Z,16.78
2023-10-03T04:53:24.614Z,16.80
2023-10-03T04:54:25.539Z,16.77
2023-10-03T04:55:26.395Z,16.75
2023-10-03T04:56:27.332Z,16.72
2023-10-03T04:57:28.191Z,16.69
2023-10-03T04:58:29.072Z,16.69
2023-10-03T04:59:30.012Z,16.72
2023-10-03T05:00:30.902Z,16.70
2023-10-03T05:01:31.844Z,16.66
2023-10-03T05:02:32.751Z,16.66
2023-10-03T05:03:33.880Z,16.65
2023-10-03T05:04:34.456Z,16.63
2023-10-03T05:05:35.301Z,16.63
2023-10-03T05:06:36.165Z,16.60
2023-10-03T05:07:37.053Z,16.59
2023-10-03T05:08:38.002Z,16.59
2023-10-03T05:09:38.856Z,16.55
2023-10-03T05:10:39.760Z,16.57
2023-10-03T05:11:40.708Z,16.55
2023-10-03T05:12:41.608Z,16.52
2023-10-03T05:13:42.464Z,16.47
2023-10-03T05:14:43.376Z,16.47
2023-10-03T05:15:44.284Z,16.50
2023-10-03T05:16:45.170Z,16.52
2023-10-03T05:17:46.264Z,16.51
2023-10-03T05:18:46.778Z,16.48
2023-10-03T05:19:47.200Z,16.47
2023-10-03T05:20:48.112Z,16.47
2023-10-03T05:21:48.977Z,16.50
2023-10-03T05:22:49.853Z,16.51
2023-10-03T05:23:50.777Z,16.52
2023-10-03T05:24:51.620Z,16.54
2023-10-03T05:25:52.505Z,16.54
2023-10-03T05:26:53.395Z,16.54
2023-10-03T05:27:54.301Z,16.51
2023-10-03T05:28:55.181Z,16.51
2023-10-03T05:29:56.102Z,16.54
2023-10-03T05:30:57.025Z,16.55
2023-10-03T05:31:57.912Z,16.55
2023-10-03T05:32:58.822Z,16.60
2023-10-03T05:33:59.689Z,16.60
2023-10-03T05:35:00.549Z,16.60
2023-10-03T05:36:01.522Z,16.63
2023-10-03T05:37:02.421Z,16.60
2023-10-03T05:38:03.292Z,16.63
2023-10-03T05:39:04.546Z,16.66
2023-10-03T05:40:05.038Z,16.70
2023-10-03T05:41:05.933Z,16.75
2023-10-03T05:42:06.888Z,16.80
2023-10-03T05:43:08.090Z,16.80
2023-10-03T05:44:08.153Z,16.82
2023-10-03T05:45:09.048Z,16.87
2023-10-03T05:46:09.911Z,16.90
2023-10-03T05:47:10.773Z,16.88
2023-10-03T05:48:11.762Z,16.91
2023-10-03T05:49:12.272Z,16.90
2023-10-03T05:50:13.237Z,16.92
2023-10-03T05:51:14.123Z,16.99
2023-10-03T05:52:15.021Z,17.12
2023-10-03T05:53:15.908Z,17.24
2023-10-03T05:54:16.785Z,17.30
2023-10-03T05:55:17.652Z,17.36
2023-10-03T05:56:18.551Z,17.45
2023-10-03T05:57:19.459Z,17.57
2023-10-03T05:58:20.349Z,17.73
2023-10-03T05:59:21.216Z,17.84
2023-10-03T06:00:22.090Z,17.99
2023-10-03T06:01:22.971Z,18.17
2023-10-03T06:02:23.995Z,18.34
2023-10-03T06:03:24.579Z,18.47
2023-10-03T06:04:25.228Z,18.53
2023-10-03T06:05:25.661Z,18.60
2023-10-03T06:06:26.512Z,18.69
2023-10-03T06:07:27.415Z,18.76
2023-10-03T06:08:28.380Z,18.79
2023-10-03T06:09:29.216Z,18.84
2023-10-03T06:10:30.084Z,18.91
2023-10-03T06:11:31.065Z,18.97
2023-10-03T06:12:31.514Z,19.02
2023-10-03T06:13:32.396Z,19.09
2023-10-03T06:14:33.291Z,19.07
2023-10-03T06:15:34.157Z,19.06
2023-10-03T06:16:35.020Z,19.06
2023-10-03T06:17:36.001Z,19.10
2023-10-03T06:18:36.579Z,19.16
2023-10-03T06:19:37.029Z,19.23
2023-10-03T06:20:37.993Z,19.25
2023-10-03T06:21:38.982Z,19.31
2023-10-03T06:22:39.399Z,19.31
2023-10-03T06:23:40.321Z,19.32
2023-10-03T06:24:41.209Z,19.35
2023-10-03T06:25:42.061Z,19.38
2023-10-03T06:26:44.088Z,19.40
2023-10-03T06:27:43.914Z,19.49
2023-10-03T06:28:44.740Z,19.53
2023-10-03T06:29:45.657Z,19.60
2023-10-03T06:30:46.579Z,19.62
2023-10-03T06:31:47.437Z,19.65
2023-10-03T06:32:48.405Z,19.68
2023-10-03T06:33:49.357Z,19.67
2023-10-03T06:34:50.260Z,19.68
2023-10-03T06:35:51.153Z,19.67
2023-10-03T06:36:52.014Z,19.67
2023-10-03T06:37:52.881Z,19.67
2023-10-03T06:38:53.832Z,19.67
2023-10-03T06:39:54.707Z,19.67
2023-10-03T06:40:55.570Z,19.68
2023-10-03T06:41:56.577Z,19.71
2023-10-03T06:42:57.441Z,19.76
2023-10-03T06:43:58.372Z,19.79
2023-10-03T06:44:59.333Z,19.82
2023-10-03T06:46:00.187Z,19.82
2023-10-03T06:47:01.117Z,19.87
2023-10-03T06:48:02.047Z,19.92
2023-10-03T06:49:02.798Z,19.94
2023-10-03T06:50:03.434Z,19.92
2023-10-03T06:51:04.414Z,19.89
2023-10-03T06:52:04.804Z,19.90
2023-10-03T06:53:05.745Z,19.89
2023-10-03T06:54:06.661Z,19.90
2023-10-03T06:55:07.541Z,19.92
2023-10-03T06:56:08.422Z,19.97
2023-10-03T06:57:09.401Z,19.97
2023-10-03T06:58:09.815Z,19.97
2023-10-03T06:59:10.719Z,20.00
2023-10-03T07:00:11.573Z,20.00
2023-10-03T07:01:12.512Z,19.98
2023-10-03T07:02:13.364Z,20.02
2023-10-03T07:03:14.453Z,20.00
2023-10-03T07:04:15.015Z,19.98
2023-10-03T07:05:15.524Z,20.00
2023-10-03T07:06:16.405Z,20.00
2023-10-03T07:07:17.242Z,19.98
2023-10-03T07:08:18.114Z,20.02
2023-10-03T07:09:19.083Z,20.07
2023-10-03T07:10:19.946Z,20.08
2023-10-03T07:11:20.829Z,20.12
2023-10-03T07:12:21.712Z,20.13
2023-10-03T07:13:25.356Z,20.12
2023-10-03T07:14:23.287Z,20.12
2023-10-03T07:15:24.254Z,20.15
2023-10-03T07:16:25.219Z,20.15
2023-10-03T07:17:26.247Z,20.16
2023-10-03T07:18:26.753Z,20.19
2023-10-03T07:19:27.179Z,20.20
2023-10-03T07:20:28.147Z,20.23
2023-10-03T07:21:29.073Z,20.19
2023-10-03T07:22:29.998Z,20.19
2023-10-03T07:23:30.883Z,20.22
2023-10-03T07:24:31.827Z,20.20
2023-10-03T07:25:32.691Z,20.23
2023-10-03T07:26:33.750Z,20.25
2023-10-03T07:27:34.124Z,20.35
2023-10-03T07:28:35.078Z,20.37
2023-10-03T07:29:36.130Z,20.41
2023-10-03T07:30:36.690Z,20.34
2023-10-03T07:31:37.140Z,20.40
2023-10-03T07:32:38.071Z,20.46
2023-10-03T07:33:39.186Z,20.56
2023-10-03T07:34:39.649Z,20.60
2023-10-03T07:35:40.629Z,20.64
2023-10-03T07:36:41.568Z,20.68
2023-10-03T07:37:42.412Z,20.72
2023-10-03T07:38:43.355Z,20.68
2023-10-03T07:39:44.291Z,20.69
2023-10-03T07:40:45.153Z,20.64
2023-10-03T07:41:46.041Z,20.68
2023-10-03T07:42:46.889Z,20.73
2023-10-03T07:43:47.761Z,20.75
2023-10-03T07:44:48.731Z,20.69
2023-10-03T07:45:49.204Z,20.60
2023-10-03T07:46:50.176Z,20.57
2023-10-03T07:47:50.677Z,20.56
2023-10-03T07:48:51.187Z,20.68
2023-10-03T07:49:51.629Z,20.68
2023-10-03T07:50:52.589Z,20.58
2023-10-03T07:51:53.462Z,20.56
2023-10-03T07:52:55.188Z,20.51
2023-10-03T07:53:55.122Z,20.40
2023-10-03T07:54:56.099Z,20.34
2023-10-03T07:55:56.982Z,20.25
2023-10-03T07:56:57.896Z,20.20
2023-10-03T07:57:59.868Z,20.22
2023-10-03T07:58:59.250Z,20.16
2023-10-03T08:00:00.328Z,20.13
2023-10-03T08:01:00.840Z,20.08
2023-10-03T08:02:02.362Z,20.02
2023-10-03T08:03:02.724Z,20.01
2023-10-03T08:04:03.247Z,19.94
2023-10-03T08:05:03.823Z,19.89
2023-10-03T08:06:04.325Z,19.87
2023-10-03T08:07:04.798Z,19.86
2023-10-03T08:08:05.814Z,19.89
2023-10-03T08:09:06.986Z,19.85
2023-10-03T08:10:07.514Z,19.86
2023-10-03T08:11:08.430Z,19.80
2023-10-03T08:12:09.340Z,19.78
2023-10-03T08:13:10.266Z,19.78
2023-10-03T08:14:11.173Z,19.82
2023-10-03T08:15:12.069Z,19.80
2023-10-03T08:16:12.956Z,19.83
2023-10-03T08:17:13.823Z,19.90
2023-10-03T08:18:14.791Z,19.95
2023-10-03T08:19:15.665Z,20.04
2023-10-03T08:20:16.584Z,20.08
2023-10-03T08:21:17.699Z,20.12
2023-10-03T08:22:18.084Z,20.08
2023-10-03T08:23:19.050Z,20.10
2023-10-03T08:24:19.948Z,20.04
2023-10-03T08:25:20.793Z,20.02
2023-10-03T08:26:21.659Z,20.01
2023-10-03T08:27:22.527Z,20.00
2023-10-03T08:28:23.427Z,20.05
2023-10-03T08:29:24.622Z,20.08
2023-10-03T08:30:25.278Z,20.16
2023-10-03T08:31:25.731Z,20.19
2023-10-03T08:32:26.740Z,20.19
2023-10-03T08:33:27.736Z,20.23
2023-10-03T08:34:28.238Z,20.40
2023-10-03T08:35:29.188Z,20.40
2023-10-03T08:36:30.158Z,20.41
2023-10-03T08:37:31.043Z,20.48
2023-10-03T08:38:31.971Z,20.48
2023-10-03T08:39:32.911Z,20.46
2023-10-03T08:40:33.809Z,20.50
2023-10-03T08:41:34.722Z,20.46
2023-10-03T08:42:36.134Z,20.41
2023-10-03T08:43:36.230Z,20.42
2023-10-03T08:44:37.132Z,20.42
2023-10-03T08:45:38.056Z,20.40
2023-10-03T08:46:39.117Z,20.46
2023-10-03T08:47:39.735Z,20.48
2023-10-03T08:49:40.945Z,20.38
2023-10-03T08:50:41.888Z,20.26
2023-10-03T08:51:42.749Z,20.23
2023-10-03T08:52:43.648Z,20.25
2023-10-03T08:53:44.620Z,20.26
2023-10-03T08:54:45.456Z,20.22
2023-10-03T08:55:46.482Z,20.23
2023-10-03T08:56:46.939Z,20.30
2023-10-03T08:57:47.872Z,20.33
2023-10-03T08:58:48.753Z,20.34
2023-10-03T08:59:49.683Z,20.30
2023-10-03T09:00:50.537Z,20.26
2023-10-03T09:01:51.449Z,20.22
2023-10-03T09:02:54.432Z,20.25
2023-10-03T09:03:53.443Z,20.25
2023-10-03T09:04:53.984Z,20.20
2023-10-03T09:05:54.888Z,20.19
2023-10-03T09:06:55.754Z,20.16
2023-10-03T09:07:56.649Z,20.13
2023-10-03T09:08:57.571Z,20.16
2023-10-03T09:09:58.482Z,20.12
2023-10-03T09:10:59.346Z,20.13
2023-10-03T09:12:00.265Z,20.12
2023-10-03T09:13:01.143Z,20.13
2023-10-03T09:14:02.049Z,20.08
2023-10-03T09:15:02.997Z,20.04
2023-10-03T09:16:03.947Z,19.98
2023-10-03T09:17:04.802Z,19.98
2023-10-03T09:18:05.732Z,20.01
2023-10-03T09:19:06.175Z,20.05
2023-10-03T09:20:07.043Z,20.10
2023-10-03T09:21:07.999Z,20.13
2023-10-03T09:22:08.882Z,20.16
2023-10-03T09:23:10.978Z,20.12
2023-10-03T09:24:10.856Z,20.07
2023-10-03T09:25:11.059Z,20.04
2023-10-03T09:26:11.944Z,20.04
2023-10-03T09:27:12.964Z,20.07
2023-10-03T09:28:13.348Z,20.12
2023-10-03T09:29:14.289Z,20.12
2023-10-03T09:30:15.190Z,20.13
2023-10-03T09:31:16.301Z,20.08
2023-10-03T09:32:16.832Z,20.07
2023-10-03T09:33:17.844Z,20.01
2023-10-03T09:34:18.998Z,19.97
2023-10-03T09:35:19.641Z,19.95
2023-10-03T09:36:20.018Z,19.94
2023-10-03T09:37:20.905Z,19.97
2023-10-03T09:38:21.847Z,20.01
2023-10-03T09:39:22.805Z,20.10
2023-10-03T09:40:23.649Z,20.07
2023-10-03T09:41:24.520Z,20.12
2023-10-03T09:42:25.674Z,20.07
2023-10-03T09:43:26.109Z,20.12
2023-10-03T09:44:26.961Z,20.04
2023-10-03T09:45:27.919Z,20.07
2023-10-03T09:46:28.807Z,20.17
2023-10-03T09:47:29.812Z,20.22
2023-10-03T09:48:30.256Z,20.12
2023-10-03T09:49:30.956Z,20.10
2023-10-03T09:50:31.536Z,20.07
2023-10-03T09:51:32.128Z,20.04
2023-10-03T09:52:33.067Z,20.05
2023-10-03T09:53:34.030Z,20.08
2023-10-03T09:54:34.937Z,20.10
2023-10-03T09:55:35.853Z,20.12
2023-10-03T09:56:36.750Z,20.17
2023-10-03T09:57:37.582Z,20.13
2023-10-03T09:58:38.603Z,20.15
2023-10-03T09:59:39.474Z,20.10
2023-10-03T10:00:41.189Z,20.13
2023-10-03T10:01:41.129Z,20.05
2023-10-03T10:02:42.129Z,20.05
2023-10-03T10:03:42.833Z,20.04
2023-10-03T10:04:43.390Z,19.94
2023-10-03T10:05:44.297Z,19.86
2023-10-03T10:06:45.164Z,19.72
2023-10-03T10:07:46.157Z,19.72
2023-10-03T10:08:47.132Z,19.68
2023-10-03T10:09:47.506Z,19.68
2023-10-03T10:10:48.396Z,19.76
2023-10-03T10:11:49.436Z,19.79
2023-10-03T10:12:49.853Z,19.79
2023-10-03T10:13:50.752Z,19.86
2023-10-03T10:14:51.686Z,19.83
2023-10-03T10:15:52.619Z,19.83
2023-10-03T10:16:53.467Z,19.86
2023-10-03T10:17:54.384Z,19.89
2023-10-03T10:18:57.292Z,19.85
2023-10-03T10:19:56.032Z,19.83
2023-10-03T10:20:56.968Z,19.82
2023-10-03T10:21:57.883Z,19.83
2023-10-03T10:22:58.776Z,19.83
2023-10-03T10:23:59.695Z,19.83
2023-10-03T10:25:00.582Z,19.83
2023-10-03T10:26:01.464Z,19.83
2023-10-03T10:27:02.340Z,19.83
2023-10-03T10:28:03.355Z,19.85
2023-10-03T10:29:03.922Z,19.90
2023-10-03T10:30:04.454Z,19.89
2023-10-03T10:31:05.417Z,19.90
2023-10-03T10:32:06.319Z,19.98
2023-10-03T10:33:07.273Z,20.00
2023-10-03T10:34:08.183Z,20.02
2023-10-03T10:35:09.054Z,20.01
2023-10-03T10:36:09.962Z,19.94
2023-10-03T10:37:11.466Z,19.85
2023-10-03T10:38:11.716Z,19.79
2023-10-03T10:39:12.730Z,19.80
2023-10-03T10:40:14.134Z,19.83
2023-10-03T10:41:14.084Z,19.79
2023-10-03T10:42:14.960Z,19.83
2023-10-03T10:43:15.856Z,19.85
2023-10-03T10:44:16.925Z,19.82
2023-10-03T10:45:17.304Z,19.82
2023-10-03T10:46:18.327Z,19.82
2023-10-03T10:47:18.762Z,19.75
2023-10-03T10:48:19.755Z,19.76
2023-10-03T10:49:20.400Z,19.79
2023-10-03T10:50:22.487Z,19.76
2023-10-03T10:51:22.271Z,19.75
2023-10-03T10:52:23.162Z,19.65
2023-10-03T10:53:24.129Z,19.65
2023-10-03T10:54:25.001Z,19.61
2023-10-03T10:55:25.850Z,19.60
2023-10-03T10:56:26.711Z,19.55
2023-10-03T10:57:27.674Z,19.46
2023-10-03T10:58:28.549Z,19.43
2023-10-03T10:59:29.452Z,19.46
2023-10-03T11:00:30.396Z,19.42
2023-10-03T11:01:31.245Z,19.40
2023-10-03T11:02:32.283Z,19.40
2023-10-03T11:03:33.076Z,19.35
2023-10-03T11:04:33.550Z,19.40
2023-10-03T11:05:34.465Z,19.45
2023-10-03T11:06:35.366Z,19.52
2023-10-03T11:07:36.341Z,19.62
2023-10-03T11:08:37.318Z,19.79
2023-10-03T11:09:37.682Z,19.87
2023-10-03T11:10:38.608Z,19.95
2023-10-03T11:11:39.698Z,19.97
2023-10-03T11:12:40.142Z,19.92
2023-10-03T11:13:41.036Z,19.71
2023-10-03T11:14:41.913Z,19.60
2023-10-03T11:15:42.892Z,19.49
2023-10-03T11:16:43.731Z,19.24
2023-10-03T11:17:44.649Z,18.86
2023-10-03T11:18:45.655Z,18.50
2023-10-03T11:19:46.091Z,18.19
2023-10-03T11:20:46.936Z,17.91
2023-10-03T11:21:47.475Z,17.73
2023-10-03T11:22:48.332Z,17.63
2023-10-03T11:23:49.263Z,17.53
2023-10-03T11:24:50.174Z,17.45
2023-10-03T11:25:51.046Z,17.38
2023-10-03T11:26:51.987Z,17.30
2023-10-03T11:27:52.410Z,17.28
2023-10-03T11:28:53.465Z,17.27
2023-10-03T11:29:53.926Z,17.25
2023-10-03T11:30:54.794Z,17.24
2023-10-03T11:31:55.714Z,17.22
2023-10-03T11:32:56.618Z,17.25
2023-10-03T11:33:57.544Z,17.27
2023-10-03T11:34:58.436Z,17.32
2023-10-03T11:35:59.283Z,17.38
2023-10-03T11:37:00.142Z,17.39
2023-10-03T11:38:01.019Z,17.30
2023-10-03T11:39:02.243Z,17.24
2023-10-03T11:40:02.812Z,17.17
2023-10-03T11:41:03.658Z,17.15
2023-10-03T11:42:04.573Z,17.17
2023-10-03T11:43:05.444Z,17.14
2023-10-03T11:44:06.348Z,17.18
2023-10-03T11:45:07.324Z,17.25
2023-10-03T11:46:08.222Z,17.27
2023-10-03T11:47:09.096Z,17.30
2023-10-03T11:48:10.137Z,17.27
2023-10-03T11:49:10.539Z,17.30
2023-10-03T11:50:11.434Z,17.24
2023-10-03T11:51:12.607Z,17.18
2023-10-03T11:52:13.108Z,17.17
2023-10-03T11:53:13.996Z,17.18
2023-10-03T11:54:14.941Z,17.28
2023-10-03T11:55:15.840Z,17.38
2023-10-03T11:56:16.713Z,17.39
2023-10-03T11:57:17.688Z,17.46
2023-10-03T11:58:18.565Z,17.43
2023-10-03T11:59:19.466Z,17.49
2023-10-03T12:00:20.377Z,17.53
2023-10-03T12:01:21.266Z,17.49
2023-10-03T12:02:22.150Z,17.51
2023-10-03T12:03:23.186Z,17.45
2023-10-03T12:04:23.647Z,17.45
2023-10-03T12:05:24.587Z,17.45
2023-10-03T12:06:25.544Z,17.46
2023-10-03T12:07:26.378Z,17.47
2023-10-03T12:08:27.349Z,17.47
2023-10-03T12:09:28.208Z,17.57
2023-10-03T12:10:29.068Z,17.60
2023-10-03T12:11:29.983Z,17.55
2023-10-03T12:12:30.840Z,17.54
2023-10-03T12:13:31.702Z,17.60
2023-10-03T12:14:32.584Z,17.62
2023-10-03T12:15:33.462Z,17.60
2023-10-03T12:16:34.417Z,17.63
2023-10-03T12:17:35.402Z,17.66
2023-10-03T12:18:36.342Z,17.60
2023-10-03T12:19:37.232Z,17.60
2023-10-03T12:20:39.296Z,17.68
2023-10-03T12:21:38.601Z,17.79
2023-10-03T12:22:39.472Z,17.87
2023-10-03T12:23:40.529Z,17.89
2023-10-03T12:24:41.159Z,17.83
2023-10-03T12:25:42.016Z,17.91
2023-10-03T12:26:42.983Z,17.96
2023-10-03T12:27:43.873Z,17.94
2023-10-03T12:28:44.742Z,17.95
2023-10-03T12:29:45.710Z,17.92
2023-10-03T12:30:46.585Z,17.92
2023-10-03T12:31:47.527Z,17.95
2023-10-03T12:32:48.479Z,17.95
2023-10-03T12:33:48.924Z,18.07
2023-10-03T12:34:49.879Z,18.10
2023-10-03T12:35:50.785Z,18.10
2023-10-03T12:36:51.316Z,18.05
2023-10-03T12:37:52.174Z,18.05
2023-10-03T12:38:53.050Z,18.05
2023-10-03T12:39:53.924Z,17.86
2023-10-03T12:40:54.818Z,17.74
2023-10-03T12:41:55.737Z,17.65
2023-10-03T12:42:56.742Z,17.58
2023-10-03T12:43:57.586Z,17.55
2023-10-03T12:44:58.506Z,17.57
2023-10-03T12:45:59.514Z,17.58
2023-10-03T12:46:59.922Z,17.53
2023-10-03T12:48:00.846Z,17.47
2023-10-03T12:49:02.047Z,17.45
2023-10-03T12:50:02.675Z,17.43
2023-10-03T12:51:03.592Z,17.49
2023-10-03T12:52:04.531Z,17.57
2023-10-03T12:53:05.638Z,17.63
2023-10-03T12:54:06.386Z,17.58
2023-10-03T12:55:06.804Z,17.55
2023-10-03T12:56:07.749Z,17.53
2023-10-03T12:57:08.630Z,17.62
2023-10-03T12:58:09.504Z,17.66
2023-10-03T12:59:10.402Z,17.68
2023-10-03T13:00:11.415Z,17.62
2023-10-03T13:01:11.868Z,17.53
2023-10-03T13:02:12.772Z,17.53
2023-10-03T13:03:15.961Z,17.46
2023-10-03T13:04:14.618Z,17.43